Time,TemperatureF,DewpointF,PressureIn,WindDirection,WindDirectionDegrees,WindSpeedMPH,WindSpeedGustMPH,Humidity,HourlyPrecipIn,Conditions,Clouds,dailyrainin,SoftwareType,DateUTC
2013-08-18 00:01:00,55.1,52.2,29.56,West,269,7.0,8.0,90,0.00,,,0.00,WeatherCatV1.21B27,2013-08-17 23:01:00,
2013-08-18 00:06:00,55.0,52.1,29.56,WSW,252,4.0,8.0,90,0.00,,,0.00,WeatherCatV1.21B27,2013-08-17 23:06:00,
2013-08-18 00:11:00,54.9,52.0,29.56,West,276,7.0,7.0,90,0.00,,,0.00,WeatherCatV1.21B27,2013-08-17 23:11:00,
2013-08-18 00:16:00,54.9,52.0,29.56,SW,232,4.0,10.0,90,0.00,,,0.00,WeatherCatV1.21B27,2013-08-17 23:16:00,
2013-08-18 00:21:00,54.9,52.0,29.56,WSW,257,7.0,8.0,90,0.00,,,0.00,WeatherCatV1.21B27,2013-08-17 23:21:00,
2013-08-18 00:26:00,54.8,51.9,29.56,WSW,240,3.0,6.0,90,0.00,,,0.00,WeatherCatV1.21B27,2013-08-17 23:26:00,
2013-08-18 00:31:00,54.7,52.1,29.56,SSW,210,4.0,6.0,91,0.00,,,0.00,WeatherCatV1.21B27,2013-08-17 23:31:00,
2013-08-18 00:36:00,54.8,52.2,29.56,WSW,249,5.0,7.0,91,0.00,,,0.00,WeatherCatV1.21B27,2013-08-17 23:36:00,
2013-08-18 00:41:00,55.0,52.4,29.56,WSW,243,5.0,7.0,91,0.00,,,0.00,WeatherCatV1.21B27,2013-08-17 23:41:00,
2013-08-18 00:46:00,55.3,52.7,29.56,WSW,245,6.0,11.0,91,0.00,,,0.00,WeatherCatV1.21B27,2013-08-17 23:46:00,
2013-08-18 00:51:00,55.6,53.0,29.56,WSW,257,6.0,7.0,91,0.00,,,0.00,WeatherCatV1.21B27,2013-08-17 23:51:00,
2013-08-18 00:56:00,55.8,53.2,29.56,West,270,4.0,7.0,91,0.00,,,0.00,WeatherCatV1.21B27,2013-08-17 23:56:00,
2013-08-18 01:01:00,56.0,53.1,29.56,SW,228,6.0,6.0,90,0.00,,,0.00,WeatherCatV1.21B27,2013-08-18 00:01:00,
2013-08-18 01:06:00,56.3,53.4,29.55,WSW,242,7.0,10.0,90,0.00,,,0.00,WeatherCatV1.21B27,2013-08-18 00:06:00,
2013-08-18 01:11:00,56.6,53.7,29.55,SW,217,5.0,8.0,90,0.00,,,0.00,WeatherCatV1.21B27,2013-08-18 00:11:00,
2013-08-18 01:16:00,57.0,53.5,29.55,SW,224,8.0,10.0,88,0.00,,,0.00,WeatherCatV1.21B27,2013-08-18 00:16:00,
2013-08-18 01:21:00,57.2,53.7,29.56,WSW,245,7.0,12.0,88,0.00,,,0.00,WeatherCatV1.21B27,2013-08-18 00:21:00,
2013-08-18 01:26:00,57.5,53.7,29.56,West,277,7.0,13.0,87,0.00,,,0.00,WeatherCatV1.21B27,2013-08-18 00:26:00,
2013-08-18 01:31:00,57.6,53.8,29.56,West,272,5.0,10.0,87,0.00,,,0.00,WeatherCatV1.21B27,2013-08-18 00:31:00,
2013-08-18 01:36:00,57.8,54.0,29.56,SW,229,7.0,11.0,87,0.00,,,0.00,WeatherCatV1.21B27,2013-08-18 00:36:00,
2013-08-18 01:41:00,57.9,53.7,29.56,SW,236,6.0,13.0,86,0.00,,,0.00,WeatherCatV1.21B27,2013-08-18 00:41:00,
2013-08-18 01:46:00,57.9,53.7,29.56,SW,228,5.0,10.0,86,0.00,,,0.00,WeatherCatV1.21B27,2013-08-18 00:46:00,
2013-08-18 01:51:00,58.0,53.8,29.56,WSW,245,7.0,10.0,86,0.00,,,0.00,WeatherCatV1.21B27,2013-08-18 00:51:00,
2013-08-18 01:56:00,58.0,53.8,29.56,WNW,297,6.0,11.0,86,0.00,,,0.00,WeatherCatV1.21B27,2013-08-18 00:56:00,
2013-08-18 02:01:00,58.0,54.2,29.56,WSW,252,9.0,12.0,87,0.00,,,0.00,WeatherCatV1.21B27,2013-08-18 01:01:00,
2013-08-18 02:06:00,57.9,54.4,29.56,SW,236,13.0,13.0,88,0.00,,,0.00,WeatherCatV1.21B27,2013-08-18 01:06:00,
2013-08-18 02:11:00,58.0,54.2,29.56,WSW,255,10.0,11.0,87,0.00,,,0.00,WeatherCatV1.21B27,2013-08-18 01:11:00,
2013-08-18 02:16:00,58.0,53.8,29.56,West,263,6.0,14.0,86,0.00,,,0.00,WeatherCatV1.21B27,2013-08-18 01:16:00,
2013-08-18 02:21:00,57.9,53.7,29.56,WSW,248,12.0,14.0,86,0.00,,,0.01,WeatherCatV1.21B27,2013-08-18 01:21:00,
2013-08-18 02:26:00,57.1,53.6,29.57,West,260,9.0,17.0,88,0.00,,,0.01,WeatherCatV1.21B27,2013-08-18 01:26:00,
2013-08-18 02:31:00,56.2,53.3,29.57,West,266,10.0,11.0,90,0.00,,,0.01,WeatherCatV1.21B27,2013-08-18 01:31:00,
2013-08-18 02:36:00,55.5,52.6,29.57,West,269,5.0,13.0,90,0.00,,,0.01,WeatherCatV1.21B27,2013-08-18 01:36:00,
2013-08-18 02:41:00,55.3,52.7,29.57,West,269,5.0,9.0,91,0.00,,,0.01,WeatherCatV1.21B27,2013-08-18 01:41:00,
2013-08-18 02:46:00,55.3,52.4,29.57,West,271,5.0,7.0,90,0.00,,,0.01,WeatherCatV1.21B27,2013-08-18 01:46:00,
2013-08-18 02:51:00,55.2,52.3,29.57,NW,321,3.0,8.0,90,0.00,,,0.01,WeatherCatV1.21B27,2013-08-18 01:51:00,
2013-08-18 02:56:00,55.2,52.3,29.57,WSW,257,4.0,10.0,90,0.00,,,0.01,WeatherCatV1.21B27,2013-08-18 01:56:00,
2013-08-18 03:01:00,55.1,52.2,29.57,WSW,245,7.0,9.0,90,0.00,,,0.01,WeatherCatV1.21B27,2013-08-18 02:01:00,
2013-08-18 03:06:00,55.1,52.5,29.57,WSW,242,9.0,9.0,91,0.00,,,0.01,WeatherCatV1.21B27,2013-08-18 02:06:00,
2013-08-18 03:11:00,55.1,52.8,29.57,West,264,9.0,10.0,92,0.00,,,0.01,WeatherCatV1.21B27,2013-08-18 02:11:00,
2013-08-18 03:16:00,55.2,52.9,29.57,West,281,13.0,14.0,92,0.00,,,0.01,WeatherCatV1.21B27,2013-08-18 02:16:00,
2013-08-18 03:21:00,55.1,52.8,29.57,WNW,282,9.0,11.0,92,0.00,,,0.02,WeatherCatV1.21B27,2013-08-18 02:21:00,
2013-08-18 03:26:00,55.0,52.4,29.57,WNW,285,5.0,11.0,91,0.00,,,0.02,WeatherCatV1.21B27,2013-08-18 02:26:00,
2013-08-18 03:31:00,54.8,51.9,29.57,West,270,4.0,9.0,90,0.00,,,0.02,WeatherCatV1.21B27,2013-08-18 02:31:00,
2013-08-18 03:36:00,54.6,51.7,29.57,West,263,3.0,8.0,90,0.00,,,0.02,WeatherCatV1.21B27,2013-08-18 02:36:00,
2013-08-18 03:41:00,54.3,51.4,29.57,WSW,245,4.0,7.0,90,0.00,,,0.02,WeatherCatV1.21B27,2013-08-18 02:41:00,
2013-08-18 03:46:00,54.1,51.2,29.57,WSW,249,4.0,9.0,90,0.00,,,0.02,WeatherCatV1.21B27,2013-08-18 02:46:00,
2013-08-18 03:51:00,53.9,51.0,29.57,WSW,253,6.0,9.0,90,0.00,,,0.02,WeatherCatV1.21B27,2013-08-18 02:51:00,
2013-08-18 03:56:00,53.7,51.1,29.57,West,260,5.0,10.0,91,0.00,,,0.02,WeatherCatV1.21B27,2013-08-18 02:56:00,
2013-08-18 04:01:00,53.7,51.4,29.57,SW,219,6.0,8.0,92,0.00,,,0.02,WeatherCatV1.21B27,2013-08-18 03:01:00,
2013-08-18 04:06:00,53.8,51.5,29.58,West,277,5.0,8.0,92,0.00,,,0.02,WeatherCatV1.21B27,2013-08-18 03:06:00,
2013-08-18 04:11:00,54.0,52.0,29.58,West,267,9.0,12.0,93,0.00,,,0.02,WeatherCatV1.21B27,2013-08-18 03:11:00,
2013-08-18 04:16:00,54.2,51.9,29.57,WSW,245,4.0,11.0,92,0.00,,,0.02,WeatherCatV1.21B27,2013-08-18 03:16:00,
2013-08-18 04:21:00,54.4,52.4,29.58,West,273,7.0,8.0,93,0.00,,,0.02,WeatherCatV1.21B27,2013-08-18 03:21:00,
2013-08-18 04:26:00,54.6,52.3,29.58,West,260,4.0,10.0,92,0.00,,,0.02,WeatherCatV1.21B27,2013-08-18 03:26:00,
2013-08-18 04:31:00,54.7,52.4,29.58,WSW,253,9.0,12.0,92,0.00,,,0.02,WeatherCatV1.21B27,2013-08-18 03:31:00,
2013-08-18 04:36:00,54.8,52.5,29.58,West,273,5.0,7.0,92,0.00,,,0.02,WeatherCatV1.21B27,2013-08-18 03:36:00,
2013-08-18 04:41:00,54.7,52.4,29.58,West,266,5.0,9.0,92,0.00,,,0.02,WeatherCatV1.21B27,2013-08-18 03:41:00,
2013-08-18 04:46:00,54.6,52.3,29.58,WSW,239,8.0,8.0,92,0.00,,,0.02,WeatherCatV1.21B27,2013-08-18 03:46:00,
2013-08-18 04:51:00,54.5,52.2,29.58,West,280,7.0,9.0,92,0.00,,,0.02,WeatherCatV1.21B27,2013-08-18 03:51:00,
2013-08-18 04:56:00,54.4,52.1,29.58,West,264,6.0,6.0,92,0.00,,,0.02,WeatherCatV1.21B27,2013-08-18 03:56:00,
2013-08-18 05:01:00,54.3,52.0,29.58,West,271,5.0,7.0,92,0.00,,,0.02,WeatherCatV1.21B27,2013-08-18 04:01:00,
2013-08-18 05:06:00,54.5,52.2,29.58,SW,225,7.0,8.0,92,0.00,,,0.02,WeatherCatV1.21B27,2013-08-18 04:06:00,
2013-08-18 05:11:00,54.5,52.2,29.58,WSW,240,6.0,8.0,92,0.00,,,0.02,WeatherCatV1.21B27,2013-08-18 04:11:00,
2013-08-18 05:16:00,54.5,52.2,29.58,WSW,252,5.0,8.0,92,0.00,,,0.02,WeatherCatV1.21B27,2013-08-18 04:16:00,
2013-08-18 05:21:00,54.5,52.5,29.59,SW,229,6.0,8.0,93,0.00,,,0.02,WeatherCatV1.21B27,2013-08-18 04:21:00,
2013-08-18 05:26:00,54.5,52.5,29.59,WNW,283,7.0,8.0,93,0.00,,,0.02,WeatherCatV1.21B27,2013-08-18 04:26:00,
2013-08-18 05:31:00,54.5,52.5,29.59,SW,228,6.0,7.0,93,0.00,,,0.02,WeatherCatV1.21B27,2013-08-18 04:31:00,
2013-08-18 05:36:00,54.3,52.3,29.59,WSW,249,5.0,8.0,93,0.00,,,0.02,WeatherCatV1.21B27,2013-08-18 04:36:00,
2013-08-18 05:42:00,54.4,52.4,29.59,WSW,250,4.0,9.0,93,0.00,,,0.02,WeatherCatV1.21B27,2013-08-18 04:42:00,
2013-08-18 05:47:00,54.5,52.5,29.60,WSW,248,6.0,9.0,93,0.00,,,0.02,WeatherCatV1.21B27,2013-08-18 04:47:00,
2013-08-18 05:52:00,54.5,52.8,29.60,WSW,250,4.0,8.0,94,0.00,,,0.02,WeatherCatV1.21B27,2013-08-18 04:52:00,
2013-08-18 05:57:00,54.5,52.8,29.60,WNW,282,5.0,7.0,94,0.00,,,0.02,WeatherCatV1.21B27,2013-08-18 04:57:00,
2013-08-18 06:02:00,54.5,52.8,29.60,West,271,4.0,5.0,94,0.00,,,0.02,WeatherCatV1.21B27,2013-08-18 05:02:00,
2013-08-18 06:07:00,54.5,52.8,29.60,WSW,243,4.0,5.0,94,0.00,,,0.02,WeatherCatV1.21B27,2013-08-18 05:07:00,
2013-08-18 06:12:00,54.5,52.8,29.60,West,259,5.0,5.0,94,0.00,,,0.02,WeatherCatV1.21B27,2013-08-18 05:12:00,
2013-08-18 06:17:00,54.4,52.7,29.60,SW,228,3.0,6.0,94,0.00,,,0.02,WeatherCatV1.21B27,2013-08-18 05:17:00,
2013-08-18 06:22:00,54.4,52.4,29.60,SW,236,4.0,6.0,93,0.00,,,0.02,WeatherCatV1.21B27,2013-08-18 05:22:00,
2013-08-18 06:27:00,54.4,52.7,29.61,WSW,248,3.0,6.0,94,0.00,,,0.02,WeatherCatV1.21B27,2013-08-18 05:27:00,
2013-08-18 06:32:00,54.4,52.7,29.61,WSW,255,3.0,5.0,94,0.00,,,0.02,WeatherCatV1.21B27,2013-08-18 05:32:00,
2013-08-18 06:37:00,54.3,52.6,29.61,SW,229,3.0,4.0,94,0.00,,,0.02,WeatherCatV1.21B27,2013-08-18 05:37:00,
2013-08-18 06:42:00,54.3,52.6,29.61,WSW,243,5.0,7.0,94,0.00,,,0.02,WeatherCatV1.21B27,2013-08-18 05:42:00,
2013-08-18 06:47:00,54.3,52.6,29.61,West,260,2.0,5.0,94,0.00,,,0.02,WeatherCatV1.21B27,2013-08-18 05:47:00,
2013-08-18 06:52:00,54.3,52.3,29.61,West,266,3.0,4.0,93,0.00,,,0.02,WeatherCatV1.21B27,2013-08-18 05:52:00,
2013-08-18 06:57:00,54.3,52.3,29.61,West,260,2.0,5.0,93,0.00,,,0.02,WeatherCatV1.21B27,2013-08-18 05:57:00,
2013-08-18 07:02:00,54.3,52.3,29.62,West,271,3.0,6.0,93,0.00,,,0.02,WeatherCatV1.21B27,2013-08-18 06:02:00,
2013-08-18 07:07:00,54.5,52.5,29.62,WNW,298,3.0,4.0,93,0.00,,,0.02,WeatherCatV1.21B27,2013-08-18 06:07:00,
2013-08-18 07:12:00,54.6,52.3,29.62,West,260,3.0,5.0,92,0.00,,,0.02,WeatherCatV1.21B27,2013-08-18 06:12:00,
2013-08-18 07:17:00,54.7,52.1,29.62,NE,44,3.0,6.0,91,0.00,,,0.02,WeatherCatV1.21B27,2013-08-18 06:17:00,
2013-08-18 07:22:00,54.9,52.3,29.63,WSW,253,4.0,5.0,91,0.00,,,0.02,WeatherCatV1.21B27,2013-08-18 06:22:00,
2013-08-18 07:27:00,54.9,52.0,29.63,West,263,3.0,6.0,90,0.00,,,0.02,WeatherCatV1.21B27,2013-08-18 06:27:00,
2013-08-18 07:32:00,54.9,51.7,29.63,WNW,298,3.0,5.0,89,0.00,,,0.02,WeatherCatV1.21B27,2013-08-18 06:32:00,
2013-08-18 07:37:00,54.9,51.7,29.63,WSW,250,3.0,3.0,89,0.00,,,0.02,WeatherCatV1.21B27,2013-08-18 06:37:00,
2013-08-18 07:42:00,54.8,51.9,29.63,WSW,253,3.0,5.0,90,0.00,,,0.02,WeatherCatV1.21B27,2013-08-18 06:42:00,
2013-08-18 07:47:00,54.9,52.0,29.64,WSW,239,2.0,5.0,90,0.00,,,0.02,WeatherCatV1.21B27,2013-08-18 06:47:00,
2013-08-18 07:52:00,55.0,52.1,29.64,WSW,239,3.0,5.0,90,0.00,,,0.02,WeatherCatV1.21B27,2013-08-18 06:52:00,
2013-08-18 07:57:00,55.2,52.0,29.64,West,269,4.0,6.0,89,0.00,,,0.02,WeatherCatV1.21B27,2013-08-18 06:57:00,
2013-08-18 08:02:00,55.3,52.1,29.65,WSW,243,10.0,12.0,89,0.00,,,0.02,WeatherCatV1.21B27,2013-08-18 07:02:00,
2013-08-18 08:07:00,55.1,52.2,29.65,West,262,5.0,11.0,90,0.00,,,0.02,WeatherCatV1.21B27,2013-08-18 07:07:00,
2013-08-18 08:12:00,54.8,52.2,29.65,WSW,256,6.0,8.0,91,0.00,,,0.02,WeatherCatV1.21B27,2013-08-18 07:12:00,
2013-08-18 08:17:00,54.7,52.1,29.65,SW,228,6.0,8.0,91,0.00,,,0.02,WeatherCatV1.21B27,2013-08-18 07:17:00,
2013-08-18 08:22:00,54.8,51.9,29.65,SSW,201,5.0,9.0,90,0.00,,,0.02,WeatherCatV1.21B27,2013-08-18 07:22:00,
2013-08-18 08:27:00,54.8,51.6,29.65,SSW,205,4.0,8.0,89,0.00,,,0.02,WeatherCatV1.21B27,2013-08-18 07:27:00,
2013-08-18 08:32:00,55.0,51.8,29.65,SW,228,2.0,5.0,89,0.00,,,0.02,WeatherCatV1.21B27,2013-08-18 07:32:00,
2013-08-18 08:37:00,55.2,51.7,29.65,SW,214,5.0,6.0,88,0.00,,,0.02,WeatherCatV1.21B27,2013-08-18 07:37:00,
2013-08-18 08:42:00,55.6,51.8,29.66,SW,219,6.0,7.0,87,0.00,,,0.02,WeatherCatV1.21B27,2013-08-18 07:42:00,
2013-08-18 08:47:00,56.0,52.2,29.66,WSW,239,10.0,10.0,87,0.00,,,0.02,WeatherCatV1.21B27,2013-08-18 07:47:00,
2013-08-18 08:52:00,56.4,52.3,29.66,WNW,287,4.0,8.0,86,0.00,,,0.02,WeatherCatV1.21B27,2013-08-18 07:52:00,
2013-08-18 08:57:00,56.7,52.2,29.66,WSW,245,4.0,7.0,85,0.00,,,0.02,WeatherCatV1.21B27,2013-08-18 07:57:00,
2013-08-18 09:02:00,56.9,52.4,29.66,WNW,288,5.0,9.0,85,0.00,,,0.02,WeatherCatV1.21B27,2013-08-18 08:02:00,
2013-08-18 09:07:00,57.1,52.6,29.66,West,269,5.0,9.0,85,0.00,,,0.02,WeatherCatV1.21B27,2013-08-18 08:07:00,
2013-08-18 09:12:00,56.7,51.6,29.66,WNW,283,7.0,10.0,83,0.00,,,0.02,WeatherCatV1.21B27,2013-08-18 08:12:00,
2013-08-18 09:17:00,56.2,51.4,29.66,West,279,6.0,9.0,84,0.00,,,0.02,WeatherCatV1.21B27,2013-08-18 08:17:00,
2013-08-18 09:22:00,56.2,51.8,29.66,West,267,6.0,8.0,85,0.00,,,0.02,WeatherCatV1.21B27,2013-08-18 08:22:00,
2013-08-18 09:27:00,56.2,51.8,29.66,WSW,245,4.0,6.0,85,0.00,,,0.02,WeatherCatV1.21B27,2013-08-18 08:27:00,
2013-08-18 09:32:00,56.6,51.8,29.66,West,280,4.0,6.0,84,0.00,,,0.02,WeatherCatV1.21B27,2013-08-18 08:32:00,
2013-08-18 09:37:00,57.1,52.3,29.66,WSW,248,7.0,8.0,84,0.00,,,0.02,WeatherCatV1.21B27,2013-08-18 08:37:00,
2013-08-18 09:42:00,57.5,52.0,29.67,West,269,6.0,8.0,82,0.00,,,0.02,WeatherCatV1.21B27,2013-08-18 08:42:00,
2013-08-18 09:47:00,58.0,51.9,29.66,SW,229,4.0,8.0,80,0.00,,,0.02,WeatherCatV1.21B27,2013-08-18 08:47:00,
2013-08-18 09:52:00,58.6,51.8,29.67,WSW,252,6.0,14.0,78,0.00,,,0.02,WeatherCatV1.21B27,2013-08-18 08:52:00,
2013-08-18 09:57:00,59.0,52.2,29.67,SW,231,4.0,7.0,78,0.00,,,0.02,WeatherCatV1.21B27,2013-08-18 08:57:00,
2013-08-18 10:02:00,59.2,52.7,29.67,WSW,255,7.0,8.0,79,0.00,,,0.02,WeatherCatV1.21B27,2013-08-18 09:02:00,
2013-08-18 10:07:00,59.3,52.1,29.67,SW,224,12.0,15.0,77,0.00,,,0.02,WeatherCatV1.21B27,2013-08-18 09:07:00,
2013-08-18 10:12:00,59.1,51.9,29.67,SW,232,5.0,11.0,77,0.00,,,0.02,WeatherCatV1.21B27,2013-08-18 09:12:00,
2013-08-18 10:17:00,59.1,51.5,29.67,SSW,212,9.0,11.0,76,0.00,,,0.02,WeatherCatV1.21B27,2013-08-18 09:17:00,
2013-08-18 10:22:00,59.0,51.4,29.67,WSW,253,4.0,10.0,76,0.00,,,0.02,WeatherCatV1.21B27,2013-08-18 09:22:00,
2013-08-18 10:27:00,59.3,52.8,29.67,SW,224,5.0,7.0,79,0.00,,,0.02,WeatherCatV1.21B27,2013-08-18 09:27:00,
2013-08-18 10:32:00,58.3,53.2,29.68,SW,224,10.0,16.0,83,0.00,,,0.02,WeatherCatV1.21B27,2013-08-18 09:32:00,
2013-08-18 10:37:00,57.2,53.7,29.68,SW,231,6.0,7.0,88,0.00,,,0.02,WeatherCatV1.21B27,2013-08-18 09:37:00,
2013-08-18 10:42:00,57.2,53.7,29.68,WSW,250,8.0,8.0,88,0.00,,,0.02,WeatherCatV1.21B27,2013-08-18 09:42:00,
2013-08-18 10:47:00,58.2,53.4,29.68,West,271,6.0,14.0,84,0.00,,,0.02,WeatherCatV1.21B27,2013-08-18 09:47:00,
2013-08-18 10:52:00,58.9,53.1,29.68,WSW,243,14.0,16.0,81,0.00,,,0.02,WeatherCatV1.21B27,2013-08-18 09:52:00,
2013-08-18 10:57:00,59.1,52.9,29.68,West,263,8.0,18.0,80,0.00,,,0.02,WeatherCatV1.21B27,2013-08-18 09:57:00,
2013-08-18 11:02:00,58.0,53.5,29.68,WNW,297,7.0,9.0,85,0.00,,,0.02,WeatherCatV1.21B27,2013-08-18 10:02:00,
2013-08-18 11:07:00,56.7,52.9,29.68,West,276,2.0,9.0,87,0.00,,,0.02,WeatherCatV1.21B27,2013-08-18 10:07:00,
2013-08-18 11:12:00,56.8,53.9,29.68,West,266,5.0,6.0,90,0.00,,,0.02,WeatherCatV1.21B27,2013-08-18 10:12:00,
2013-08-18 11:17:00,57.5,53.7,29.68,West,280,4.0,10.0,87,0.00,,,0.02,WeatherCatV1.21B27,2013-08-18 10:17:00,
2013-08-18 11:22:00,58.3,53.8,29.68,SW,214,6.0,10.0,85,0.00,,,0.02,WeatherCatV1.21B27,2013-08-18 10:22:00,
2013-08-18 11:27:00,58.6,51.1,29.68,SW,232,6.0,14.0,76,0.00,,,0.02,WeatherCatV1.21B27,2013-08-18 10:27:00,
2013-08-18 11:32:00,58.8,50.5,29.68,WSW,253,5.0,14.0,74,0.00,,,0.02,WeatherCatV1.21B27,2013-08-18 10:32:00,
2013-08-18 11:37:00,59.4,51.5,29.68,WSW,239,10.0,17.0,75,0.00,,,0.02,WeatherCatV1.21B27,2013-08-18 10:37:00,
2013-08-18 11:42:00,60.1,51.4,29.68,WSW,250,10.0,19.0,73,0.00,,,0.02,WeatherCatV1.21B27,2013-08-18 10:42:00,
2013-08-18 11:47:00,60.5,51.8,29.68,SW,219,8.0,18.0,73,0.00,,,0.02,WeatherCatV1.21B27,2013-08-18 10:47:00,
2013-08-18 11:52:00,60.4,50.6,29.68,WSW,256,9.0,16.0,70,0.00,,,0.02,WeatherCatV1.21B27,2013-08-18 10:52:00,
2013-08-18 11:57:00,60.3,50.8,29.68,SW,236,13.0,18.0,71,0.00,,,0.02,WeatherCatV1.21B27,2013-08-18 10:57:00,
2013-08-18 12:02:00,60.5,51.4,29.68,SW,232,10.0,18.0,72,0.00,,,0.02,WeatherCatV1.21B27,2013-08-18 11:02:00,
2013-08-18 12:07:00,59.8,53.6,29.69,SW,221,13.0,19.0,80,0.00,,,0.02,WeatherCatV1.21B27,2013-08-18 11:07:00,
2013-08-18 12:12:00,58.6,52.8,29.69,WSW,239,13.0,20.0,81,0.00,,,0.02,WeatherCatV1.21B27,2013-08-18 11:12:00,
2013-08-18 12:17:00,58.2,53.1,29.69,SW,232,11.0,16.0,83,0.00,,,0.02,WeatherCatV1.21B27,2013-08-18 11:17:00,
2013-08-18 12:22:00,58.2,52.4,29.69,WSW,249,7.0,12.0,81,0.00,,,0.02,WeatherCatV1.21B27,2013-08-18 11:22:00,
2013-08-18 12:27:00,58.3,53.2,29.70,WSW,243,8.0,23.0,83,0.00,,,0.03,WeatherCatV1.21B27,2013-08-18 11:27:00,
2013-08-18 12:32:00,56.3,52.2,29.70,West,263,13.0,19.0,86,0.00,,,0.03,WeatherCatV1.21B27,2013-08-18 11:32:00,
2013-08-18 12:37:00,55.7,51.9,29.70,SSW,207,6.0,14.0,87,0.00,,,0.03,WeatherCatV1.21B27,2013-08-18 11:37:00,
2013-08-18 12:42:00,56.2,52.4,29.70,WSW,252,7.0,11.0,87,0.00,,,0.03,WeatherCatV1.21B27,2013-08-18 11:42:00,
2013-08-18 12:47:00,56.8,52.0,29.70,SSW,213,8.0,9.0,84,0.00,,,0.03,WeatherCatV1.21B27,2013-08-18 11:47:00,
2013-08-18 12:52:00,57.6,52.8,29.70,West,274,4.0,12.0,84,0.00,,,0.03,WeatherCatV1.21B27,2013-08-18 11:52:00,
2013-08-18 12:57:00,58.5,53.3,29.70,SW,225,7.0,13.0,83,0.00,,,0.03,WeatherCatV1.21B27,2013-08-18 11:57:00,
2013-08-18 13:02:00,59.3,53.1,29.70,SW,232,8.0,14.0,80,0.00,,,0.03,WeatherCatV1.21B27,2013-08-18 12:02:00,
2013-08-18 13:07:00,59.5,53.0,29.70,WNW,293,6.0,10.0,79,0.00,,,0.03,WeatherCatV1.21B27,2013-08-18 12:07:00,
2013-08-18 13:12:00,59.4,52.9,29.70,WSW,250,9.0,13.0,79,0.00,,,0.03,WeatherCatV1.21B27,2013-08-18 12:12:00,
2013-08-18 13:17:00,59.2,53.0,29.70,West,276,7.0,15.0,80,0.00,,,0.03,WeatherCatV1.21B27,2013-08-18 12:17:00,
2013-08-18 13:22:00,58.8,52.6,29.70,West,262,14.0,16.0,80,0.00,,,0.03,WeatherCatV1.21B27,2013-08-18 12:22:00,
2013-08-18 13:27:00,59.9,52.3,29.70,West,274,11.0,17.0,76,0.00,,,0.03,WeatherCatV1.21B27,2013-08-18 12:27:00,
2013-08-18 13:32:00,60.8,52.1,29.70,WSW,255,10.0,15.0,73,0.00,,,0.03,WeatherCatV1.21B27,2013-08-18 12:32:00,
2013-08-18 13:37:00,60.8,50.6,29.70,WNW,283,12.0,18.0,69,0.00,,,0.03,WeatherCatV1.21B27,2013-08-18 12:37:00,
2013-08-18 13:42:00,61.0,50.8,29.70,West,274,10.0,18.0,69,0.00,,,0.03,WeatherCatV1.21B27,2013-08-18 12:42:00,
2013-08-18 13:47:00,61.3,50.2,29.71,West,260,13.0,20.0,67,0.00,,,0.03,WeatherCatV1.21B27,2013-08-18 12:47:00,
2013-08-18 13:52:00,60.9,49.9,29.71,West,280,12.0,18.0,67,0.00,,,0.03,WeatherCatV1.21B27,2013-08-18 12:52:00,
2013-08-18 13:57:00,60.8,50.2,29.71,West,259,11.0,15.0,68,0.00,,,0.03,WeatherCatV1.21B27,2013-08-18 12:57:00,
2013-08-18 14:02:00,60.3,51.6,29.71,NW,326,11.0,21.0,73,0.00,,,0.03,WeatherCatV1.21B27,2013-08-18 13:02:00,
2013-08-18 14:07:00,59.6,51.7,29.72,WNW,283,6.0,19.0,75,0.00,,,0.03,WeatherCatV1.21B27,2013-08-18 13:07:00,
2013-08-18 14:12:00,59.1,51.2,29.71,West,267,7.0,13.0,75,0.00,,,0.03,WeatherCatV1.21B27,2013-08-18 13:12:00,
2013-08-18 14:17:00,60.5,52.5,29.71,NW,307,5.0,17.0,75,0.00,,,0.03,WeatherCatV1.21B27,2013-08-18 13:17:00,
2013-08-18 14:22:00,61.1,52.4,29.71,WSW,250,4.0,13.0,73,0.00,,,0.03,WeatherCatV1.21B27,2013-08-18 13:22:00,
2013-08-18 14:27:00,61.6,51.7,29.71,SSW,207,7.0,13.0,70,0.00,,,0.03,WeatherCatV1.21B27,2013-08-18 13:27:00,
2013-08-18 14:32:00,62.2,49.9,29.71,SW,236,11.0,17.0,64,0.00,,,0.03,WeatherCatV1.21B27,2013-08-18 13:32:00,
2013-08-18 14:37:00,62.3,50.4,29.71,West,270,4.0,16.0,65,0.00,,,0.03,WeatherCatV1.21B27,2013-08-18 13:37:00,
2013-08-18 14:42:00,62.6,49.8,29.71,West,280,10.0,21.0,63,0.00,,,0.03,WeatherCatV1.21B27,2013-08-18 13:42:00,
2013-08-18 14:47:00,62.3,50.4,29.71,WNW,285,12.0,18.0,65,0.00,,,0.03,WeatherCatV1.21B27,2013-08-18 13:47:00,
2013-08-18 14:52:00,62.2,51.5,29.71,WNW,284,10.0,11.0,68,0.00,,,0.03,WeatherCatV1.21B27,2013-08-18 13:52:00,
2013-08-18 14:57:00,62.4,50.5,29.71,West,280,8.0,20.0,65,0.00,,,0.03,WeatherCatV1.21B27,2013-08-18 13:57:00,
2013-08-18 15:02:00,62.3,50.8,29.71,WSW,242,10.0,19.0,66,0.00,,,0.03,WeatherCatV1.21B27,2013-08-18 14:02:00,
2013-08-18 15:07:00,61.6,49.7,29.72,West,273,9.0,18.0,65,0.00,,,0.03,WeatherCatV1.21B27,2013-08-18 14:07:00,
2013-08-18 15:12:00,61.6,50.1,29.72,West,271,6.0,16.0,66,0.00,,,0.03,WeatherCatV1.21B27,2013-08-18 14:12:00,
2013-08-18 15:17:00,61.4,51.1,29.72,West,266,10.0,15.0,69,0.00,,,0.03,WeatherCatV1.21B27,2013-08-18 14:17:00,
2013-08-18 15:22:00,61.5,51.2,29.71,West,278,13.0,16.0,69,0.00,,,0.03,WeatherCatV1.21B27,2013-08-18 14:22:00,
2013-08-18 15:27:00,61.3,51.4,29.72,WSW,252,9.0,13.0,70,0.00,,,0.03,WeatherCatV1.21B27,2013-08-18 14:27:00,
2013-08-18 15:32:00,61.5,51.2,29.72,West,277,9.0,15.0,69,0.00,,,0.03,WeatherCatV1.21B27,2013-08-18 14:32:00,
2013-08-18 15:37:00,61.4,51.1,29.72,West,259,10.0,17.0,69,0.00,,,0.03,WeatherCatV1.21B27,2013-08-18 14:37:00,
2013-08-18 15:42:00,60.8,52.8,29.72,WNW,288,8.0,9.0,75,0.00,,,0.03,WeatherCatV1.21B27,2013-08-18 14:42:00,
2013-08-18 15:47:00,61.4,51.9,29.72,West,281,12.0,14.0,71,0.00,,,0.03,WeatherCatV1.21B27,2013-08-18 14:47:00,
2013-08-18 15:52:00,62.0,50.1,29.72,West,269,8.0,20.0,65,0.00,,,0.03,WeatherCatV1.21B27,2013-08-18 14:52:00,
2013-08-18 15:57:00,62.1,49.3,29.72,West,276,5.0,16.0,63,0.00,,,0.03,WeatherCatV1.21B27,2013-08-18 14:57:00,
2013-08-18 16:02:00,62.0,50.5,29.72,WSW,250,12.0,17.0,66,0.00,,,0.03,WeatherCatV1.21B27,2013-08-18 15:02:00,
2013-08-18 16:07:00,61.9,50.8,29.72,West,264,6.0,9.0,67,0.00,,,0.03,WeatherCatV1.21B27,2013-08-18 15:07:00,
2013-08-18 16:12:00,61.5,50.4,29.72,SW,219,13.0,15.0,67,0.00,,,0.03,WeatherCatV1.21B27,2013-08-18 15:12:00,
2013-08-18 16:17:00,60.9,50.3,29.73,West,266,8.0,14.0,68,0.00,,,0.03,WeatherCatV1.21B27,2013-08-18 15:17:00,
2013-08-18 16:22:00,60.5,49.9,29.73,WSW,243,15.0,18.0,68,0.00,,,0.03,WeatherCatV1.21B27,2013-08-18 15:22:00,
2013-08-18 16:27:00,60.4,49.4,29.73,NW,309,8.0,15.0,67,0.00,,,0.03,WeatherCatV1.21B27,2013-08-18 15:27:00,
2013-08-18 16:32:00,60.8,49.8,29.73,SW,235,9.0,14.0,67,0.00,,,0.03,WeatherCatV1.21B27,2013-08-18 15:32:00,
2013-08-18 16:37:00,61.3,49.8,29.73,West,260,15.0,17.0,66,0.00,,,0.03,WeatherCatV1.21B27,2013-08-18 15:37:00,
2013-08-18 16:42:00,61.4,48.3,29.73,West,274,8.0,17.0,62,0.00,,,0.03,WeatherCatV1.21B27,2013-08-18 15:42:00,
2013-08-18 16:47:00,61.4,49.5,29.73,West,259,8.0,14.0,65,0.00,,,0.03,WeatherCatV1.21B27,2013-08-18 15:47:00,
2013-08-18 16:52:00,62.2,49.9,29.73,SSW,212,11.0,17.0,64,0.00,,,0.03,WeatherCatV1.21B27,2013-08-18 15:52:00,
2013-08-18 16:57:00,62.1,48.9,29.73,West,270,9.0,18.0,62,0.00,,,0.03,WeatherCatV1.21B27,2013-08-18 15:57:00,
2013-08-18 17:02:00,62.0,48.8,29.74,West,263,15.0,18.0,62,0.00,,,0.03,WeatherCatV1.21B27,2013-08-18 16:02:00,
2013-08-18 17:07:00,62.0,50.1,29.73,WSW,245,9.0,14.0,65,0.00,,,0.03,WeatherCatV1.21B27,2013-08-18 16:07:00,
2013-08-18 17:12:00,62.1,50.2,29.74,West,266,16.0,16.0,65,0.00,,,0.03,WeatherCatV1.21B27,2013-08-18 16:12:00,
2013-08-18 17:17:00,62.2,49.9,29.74,West,266,7.0,15.0,64,0.00,,,0.03,WeatherCatV1.21B27,2013-08-18 16:17:00,
2013-08-18 17:22:00,62.4,50.9,29.74,West,278,8.0,14.0,66,0.00,,,0.03,WeatherCatV1.21B27,2013-08-18 16:22:00,
2013-08-18 17:27:00,62.3,50.8,29.74,SW,229,10.0,15.0,66,0.00,,,0.03,WeatherCatV1.21B27,2013-08-18 16:27:00,
2013-08-18 17:32:00,62.2,49.9,29.74,SW,225,9.0,14.0,64,0.00,,,0.03,WeatherCatV1.21B27,2013-08-18 16:32:00,
2013-08-18 17:37:00,62.3,50.0,29.74,SW,226,12.0,13.0,64,0.00,,,0.03,WeatherCatV1.21B27,2013-08-18 16:37:00,
2013-08-18 17:42:00,61.9,50.4,29.74,West,267,6.0,13.0,66,0.00,,,0.03,WeatherCatV1.21B27,2013-08-18 16:42:00,
2013-08-18 17:47:00,61.9,50.8,29.74,West,278,8.0,14.0,67,0.00,,,0.03,WeatherCatV1.21B27,2013-08-18 16:47:00,
2013-08-18 17:52:00,61.9,50.4,29.74,WSW,255,9.0,14.0,66,0.00,,,0.03,WeatherCatV1.21B27,2013-08-18 16:52:00,
2013-08-18 17:57:00,61.9,50.4,29.74,WSW,246,12.0,13.0,66,0.00,,,0.03,WeatherCatV1.21B27,2013-08-18 16:57:00,
2013-08-18 18:02:00,61.4,49.5,29.74,NW,305,14.0,14.0,65,0.00,,,0.03,WeatherCatV1.21B27,2013-08-18 17:02:00,
2013-08-18 18:07:00,60.8,49.8,29.74,West,276,13.0,19.0,67,0.00,,,0.03,WeatherCatV1.21B27,2013-08-18 17:07:00,
2013-08-18 18:12:00,60.6,50.0,29.75,WSW,257,6.0,11.0,68,0.00,,,0.03,WeatherCatV1.21B27,2013-08-18 17:12:00,
2013-08-18 18:17:00,60.1,49.9,29.75,West,277,8.0,13.0,69,0.00,,,0.03,WeatherCatV1.21B27,2013-08-18 17:17:00,
2013-08-18 18:22:00,59.8,50.0,29.75,West,277,14.0,15.0,70,0.00,,,0.03,WeatherCatV1.21B27,2013-08-18 17:22:00,
2013-08-18 18:27:00,59.4,50.7,29.75,SW,219,10.0,16.0,73,0.00,,,0.03,WeatherCatV1.21B27,2013-08-18 17:27:00,
2013-08-18 18:32:00,59.4,51.5,29.75,West,264,5.0,14.0,75,0.00,,,0.03,WeatherCatV1.21B27,2013-08-18 17:32:00,
2013-08-18 18:37:00,59.7,51.8,29.75,SW,235,7.0,11.0,75,0.00,,,0.03,WeatherCatV1.21B27,2013-08-18 17:37:00,
2013-08-18 18:42:00,59.9,52.0,29.75,WSW,250,5.0,9.0,75,0.00,,,0.03,WeatherCatV1.21B27,2013-08-18 17:42:00,
2013-08-18 18:47:00,59.9,52.0,29.75,South,175,7.0,12.0,75,0.00,,,0.03,WeatherCatV1.21B27,2013-08-18 17:47:00,
2013-08-18 18:52:00,59.5,52.3,29.75,West,266,9.0,14.0,77,0.00,,,0.03,WeatherCatV1.21B27,2013-08-18 17:52:00,
2013-08-18 18:57:00,59.4,52.5,29.75,SSW,212,8.0,10.0,78,0.00,,,0.03,WeatherCatV1.21B27,2013-08-18 17:57:00,
2013-08-18 19:02:00,59.3,52.1,29.76,WSW,255,7.0,10.0,77,0.00,,,0.03,WeatherCatV1.21B27,2013-08-18 18:02:00,
2013-08-18 19:07:00,59.5,51.9,29.76,WNW,283,7.0,11.0,76,0.00,,,0.03,WeatherCatV1.21B27,2013-08-18 18:07:00,
2013-08-18 19:12:00,59.3,51.4,29.76,SW,219,4.0,7.0,75,0.00,,,0.03,WeatherCatV1.21B27,2013-08-18 18:12:00,
2013-08-18 19:17:00,59.2,51.6,29.76,SW,232,7.0,10.0,76,0.00,,,0.03,WeatherCatV1.21B27,2013-08-18 18:17:00,
2013-08-18 19:22:00,59.1,50.1,29.76,West,269,4.0,10.0,72,0.00,,,0.03,WeatherCatV1.21B27,2013-08-18 18:22:00,
2013-08-18 19:27:00,59.3,49.9,29.76,WSW,242,9.0,11.0,71,0.00,,,0.03,WeatherCatV1.21B27,2013-08-18 18:27:00,
2013-08-18 19:32:00,59.4,50.4,29.76,WSW,249,7.0,8.0,72,0.00,,,0.03,WeatherCatV1.21B27,2013-08-18 18:32:00,
2013-08-18 19:37:00,59.3,50.3,29.76,WSW,255,7.0,9.0,72,0.00,,,0.03,WeatherCatV1.21B27,2013-08-18 18:37:00,
2013-08-18 19:42:00,59.3,50.6,29.77,SW,222,4.0,10.0,73,0.00,,,0.03,WeatherCatV1.21B27,2013-08-18 18:42:00,
2013-08-18 19:47:00,59.1,50.5,29.77,WSW,243,6.0,11.0,73,0.00,,,0.03,WeatherCatV1.21B27,2013-08-18 18:47:00,
2013-08-18 19:52:00,58.8,50.5,29.77,West,266,7.0,10.0,74,0.00,,,0.03,WeatherCatV1.21B27,2013-08-18 18:52:00,
2013-08-18 19:57:00,58.6,50.3,29.77,WSW,256,9.0,11.0,74,0.00,,,0.03,WeatherCatV1.21B27,2013-08-18 18:57:00,
2013-08-18 20:02:00,58.5,50.6,29.77,West,262,5.0,9.0,75,0.00,,,0.03,WeatherCatV1.21B27,2013-08-18 19:02:00,
2013-08-18 20:07:00,58.6,51.1,29.77,West,263,4.0,5.0,76,0.00,,,0.03,WeatherCatV1.21B27,2013-08-18 19:07:00,
2013-08-18 20:12:00,58.6,51.4,29.77,West,274,3.0,6.0,77,0.00,,,0.03,WeatherCatV1.21B27,2013-08-18 19:12:00,
2013-08-18 20:17:00,58.4,51.2,29.78,WSW,242,5.0,7.0,77,0.00,,,0.03,WeatherCatV1.21B27,2013-08-18 19:17:00,
2013-08-18 20:22:00,58.3,51.5,29.78,WSW,243,8.0,8.0,78,0.00,,,0.03,WeatherCatV1.21B27,2013-08-18 19:22:00,
2013-08-18 20:27:00,58.2,51.7,29.78,WSW,252,3.0,6.0,79,0.00,,,0.03,WeatherCatV1.21B27,2013-08-18 19:27:00,
2013-08-18 20:32:00,58.2,51.7,29.78,WSW,243,3.0,3.0,79,0.00,,,0.03,WeatherCatV1.21B27,2013-08-18 19:32:00,
2013-08-18 20:37:00,58.0,51.9,29.78,SW,220,3.0,6.0,80,0.00,,,0.03,WeatherCatV1.21B27,2013-08-18 19:37:00,
2013-08-18 20:42:00,57.8,52.0,29.78,West,262,2.0,4.0,81,0.00,,,0.03,WeatherCatV1.21B27,2013-08-18 19:42:00,
2013-08-18 20:47:00,57.7,51.9,29.78,WSW,239,3.0,5.0,81,0.00,,,0.03,WeatherCatV1.21B27,2013-08-18 19:47:00,
2013-08-18 20:52:00,57.7,51.9,29.79,WSW,250,4.0,5.0,81,0.00,,,0.03,WeatherCatV1.21B27,2013-08-18 19:52:00,
2013-08-18 20:57:00,57.6,51.8,29.79,West,259,4.0,7.0,81,0.00,,,0.03,WeatherCatV1.21B27,2013-08-18 19:57:00,
2013-08-18 21:02:00,57.5,51.7,29.79,West,262,3.0,5.0,81,0.00,,,0.03,WeatherCatV1.21B27,2013-08-18 20:02:00,
2013-08-18 21:07:00,57.3,51.5,29.79,West,267,3.0,5.0,81,0.00,,,0.03,WeatherCatV1.21B27,2013-08-18 20:07:00,
2013-08-18 21:13:00,57.1,51.7,29.79,West,269,2.0,4.0,82,0.00,,,0.03,WeatherCatV1.21B27,2013-08-18 20:13:00,
2013-08-18 21:18:00,56.8,51.7,29.80,West,262,2.0,4.0,83,0.00,,,0.03,WeatherCatV1.21B27,2013-08-18 20:18:00,
2013-08-18 21:23:00,56.6,51.8,29.80,West,267,3.0,6.0,84,0.00,,,0.03,WeatherCatV1.21B27,2013-08-18 20:23:00,
2013-08-18 21:28:00,56.4,51.6,29.80,WSW,248,3.0,5.0,84,0.00,,,0.03,WeatherCatV1.21B27,2013-08-18 20:28:00,
2013-08-18 21:33:00,56.3,51.8,29.80,West,276,4.0,9.0,85,0.00,,,0.03,WeatherCatV1.21B27,2013-08-18 20:33:00,
2013-08-18 21:38:00,56.3,52.2,29.81,West,276,10.0,11.0,86,0.00,,,0.03,WeatherCatV1.21B27,2013-08-18 20:38:00,
2013-08-18 21:43:00,55.9,52.4,29.81,West,262,5.0,7.0,88,0.00,,,0.03,WeatherCatV1.21B27,2013-08-18 20:43:00,
2013-08-18 21:48:00,55.6,52.4,29.81,WSW,253,8.0,9.0,89,0.00,,,0.03,WeatherCatV1.21B27,2013-08-18 20:48:00,
2013-08-18 21:53:00,55.4,52.2,29.82,WNW,284,3.0,5.0,89,0.00,,,0.03,WeatherCatV1.21B27,2013-08-18 20:53:00,
2013-08-18 21:58:00,55.4,51.9,29.82,West,262,4.0,5.0,88,0.00,,,0.03,WeatherCatV1.21B27,2013-08-18 20:58:00,
2013-08-18 22:03:00,55.4,51.9,29.82,WSW,249,3.0,5.0,88,0.00,,,0.03,WeatherCatV1.21B27,2013-08-18 21:03:00,
2013-08-18 22:08:00,55.3,52.1,29.82,WSW,243,4.0,4.0,89,0.00,,,0.03,WeatherCatV1.21B27,2013-08-18 21:08:00,
2013-08-18 22:13:00,55.3,52.1,29.82,SW,235,2.0,4.0,89,0.00,,,0.03,WeatherCatV1.21B27,2013-08-18 21:13:00,
2013-08-18 22:18:00,55.3,52.1,29.82,SW,229,4.0,5.0,89,0.00,,,0.03,WeatherCatV1.21B27,2013-08-18 21:18:00,
2013-08-18 22:23:00,55.3,52.1,29.82,SW,229,3.0,4.0,89,0.00,,,0.03,WeatherCatV1.21B27,2013-08-18 21:23:00,
2013-08-18 22:28:00,55.3,52.1,29.82,West,270,2.0,4.0,89,0.00,,,0.03,WeatherCatV1.21B27,2013-08-18 21:28:00,
2013-08-18 22:33:00,55.2,51.7,29.82,WNW,282,5.0,5.0,88,0.00,,,0.03,WeatherCatV1.21B27,2013-08-18 21:33:00,
2013-08-18 22:38:00,55.3,51.8,29.82,SW,236,3.0,6.0,88,0.00,,,0.03,WeatherCatV1.21B27,2013-08-18 21:38:00,
2013-08-18 22:43:00,55.4,51.9,29.82,West,267,2.0,5.0,88,0.00,,,0.03,WeatherCatV1.21B27,2013-08-18 21:43:00,
2013-08-18 22:48:00,55.4,51.9,29.82,WNW,291,3.0,6.0,88,0.00,,,0.03,WeatherCatV1.21B27,2013-08-18 21:48:00,
2013-08-18 22:53:00,55.3,51.8,29.83,WNW,283,3.0,5.0,88,0.00,,,0.03,WeatherCatV1.21B27,2013-08-18 21:53:00,
2013-08-18 22:58:00,55.2,51.7,29.83,West,280,2.0,4.0,88,0.00,,,0.03,WeatherCatV1.21B27,2013-08-18 21:58:00,
2013-08-18 23:03:00,55.0,51.5,29.83,WNW,287,5.0,5.0,88,0.00,,,0.03,WeatherCatV1.21B27,2013-08-18 22:03:00,
2013-08-18 23:08:00,54.9,51.7,29.83,West,270,3.0,4.0,89,0.00,,,0.03,WeatherCatV1.21B27,2013-08-18 22:08:00,
2013-08-18 23:13:00,54.8,51.6,29.84,West,277,2.0,5.0,89,0.00,,,0.03,WeatherCatV1.21B27,2013-08-18 22:13:00,
2013-08-18 23:18:00,54.5,51.3,29.84,WNW,284,1.0,2.0,89,0.00,,,0.03,WeatherCatV1.21B27,2013-08-18 22:18:00,
2013-08-18 23:24:00,54.2,51.3,29.84,West,281,1.0,2.0,90,0.00,,,0.03,WeatherCatV1.21B27,2013-08-18 22:24:00,
2013-08-18 23:29:00,54.0,51.1,29.84,West,274,0.0,1.0,90,0.00,,,0.03,WeatherCatV1.21B27,2013-08-18 22:29:00,
2013-08-18 23:34:00,53.7,50.8,29.84,West,274,1.0,1.0,90,0.00,,,0.03,WeatherCatV1.21B27,2013-08-18 22:34:00,
2013-08-18 23:39:00,53.6,51.0,29.84,West,274,0.0,1.0,91,0.00,,,0.03,WeatherCatV1.21B27,2013-08-18 22:39:00,
2013-08-18 23:44:00,53.4,50.8,29.84,West,274,0.0,0.0,91,0.00,,,0.03,WeatherCatV1.21B27,2013-08-18 22:44:00,
2013-08-18 23:49:00,53.3,50.7,29.84,West,274,1.0,1.0,91,0.00,,,0.03,WeatherCatV1.21B27,2013-08-18 22:49:00,
2013-08-18 23:54:00,52.9,50.3,29.84,WNW,287,0.0,1.0,91,0.00,,,0.03,WeatherCatV1.21B27,2013-08-18 22:54:00,
2013-08-18 23:59:00,52.7,50.2,29.84,West,281,2.0,2.0,91,0.00,,,0.03,WeatherCatV1.21B27,2013-08-18 22:59:00,